首页
METAR-TAF:

METAR-TAF

机场 :

伊利, 科羅拉多州, 美国

纬度: 40-00-37N, 经度: 105-02-53W, 海拔: 1564米

当前天气观测

该预报发布于13分钟前的02:55 UTC
风速3节,风向
温度 25°C
湿度 36%
气压 1023 hPa
能見度: 16.1公里
天空无云

METAR: KEIK 250255Z AUTO 18003KT 10SM CLR 25/09 A3022 RMK AO2 T02530091 PWINO

时间: 21:08 (03:08 UTC)


TAF: 丢失

超过4000个机场的气象观测和天气预报(METAR&TAF报告)。

可查询的气象台以黄色和红色小点在地图上表示。

将鼠标移到小点上方,可查看气象台名称。

然后点击查看天气观测和预报。

如需切换地图:点击带黑十字的绿色按钮放大地图;点击带横线的绿色按钮缩小地图;或者点击绿色箭头查看邻近地区的地图。


METAR-TAF: